Latest Weather Observations for Perisher Valley

IDN60801

Issued at 7:02 am EST Thursday 5 May 2016 (issued every 30 minutes, with the page automatically refreshed every 10 minutes)

About weather observations | Map of weather stations | Latest weather observations for NSW | Other Formats
Station Details ID: 071075 Name: PERISHER VALLEY AWS Lat: -36.41 Lon: 148.41 Height: 1738.0 m
Data from the previous 72 hours. | See also: Recent months at Perisher Valley
Date/Time
EST
Temp
°C
App
Temp
°C
Dew
Point
Rel
Hum
%
Delta-T
°C
Wind Press
QNH
hPa
Press
MSL
hPa
Rain
since 9 am
mm
Dir
 
Spd
km/h
Gust
km/h
Spd
kts
Gust
kts
05/07:00am -2.3 -5.1 -3.7 90 0.4 W 2 9 1 5 - - 0.0
05/06:30am -2.3 -4.8 -4.0 88 0.5 CALM 0 4 0 2 - - 0.0
05/06:00am -1.6 -4.3 -2.7 92 0.3 SSE 2 7 1 4 - - 0.0
05/05:30am -1.8 -4.2 -2.8 93 0.3 CALM 0 4 0 2 - - 0.0
05/05:00am -1.6 -4.4 -2.9 91 0.4 E 2 6 1 3 - - 0.0
05/04:30am -1.1 -3.4 -2.4 91 0.4 CALM 0 6 0 3 - - 0.0
05/04:00am -0.2 -2.8 -1.6 90 0.5 WSW 2 6 1 3 - - 0.0
05/03:30am 0.3 -3.0 -1.4 88 0.7 W 6 17 3 9 - - 0.0
05/03:00am 0.9 -3.4 -1.3 85 0.9 WNW 11 22 6 12 - - 0.0
05/02:30am 0.3 -3.0 -1.6 87 0.8 SW 6 17 3 9 - - 0.0
05/02:00am 0.0 -3.6 -1.9 87 0.7 SW 7 30 4 16 - - 0.0
05/01:30am -0.1 -3.6 -2.5 84 0.9 E 6 13 3 7 - - 0.0
05/01:00am 0.5 -6.0 -2.2 82 1.1 W 22 37 12 20 - - 0.0
05/12:30am 0.8 -7.8 -2.2 80 1.2 W 33 46 18 25 - - 0.0
05/12:07am 1.8 -6.0 -3.9 66 2.2 W 28 50 15 27 - - 0.0
05/12:00am 2.2 -5.3 -4.3 62 2.5 W 26 43 14 23 - - 0.0
 
Date/Time
EST
Temp
°C
App
Temp
°C
Dew
Point
Rel
Hum
%
Delta-T
°C
Wind Press
QNH
hPa
Press
MSL
hPa
Rain
since 9 am
mm
Dir
 
Spd
km/h
Gust
km/h
Spd
kts
Gust
kts
04/11:30pm 1.7 -6.0 -3.0 71 1.9 W 28 41 15 22 - - 0.0
04/11:00pm 1.0 -4.4 -1.6 83 1.1 W 17 32 9 17 - - 0.0
04/10:30pm 0.6 -2.8 -0.8 90 0.6 W 7 30 4 16 - - 0.0
04/10:00pm 0.9 -3.0 -1.2 86 0.8 WNW 9 28 5 15 - - 0.0
04/09:30pm 1.2 -3.4 -1.0 85 0.9 WSW 13 30 7 16 - - 0.0
04/09:00pm 1.4 -2.5 -1.2 83 1.0 WNW 9 24 5 13 - - 0.0
04/08:30pm 1.7 -5.4 -1.2 81 1.2 W 26 41 14 22 - - 0.0
04/08:00pm 1.1 -2.7 -0.8 87 0.8 WSW 9 22 5 12 - - 0.0
04/07:30pm 1.2 -2.6 -0.4 89 0.7 ESE 9 20 5 11 - - 0.0
04/07:00pm 1.1 -2.3 -0.8 87 0.8 E 7 15 4 8 - - 0.0
04/06:30pm 1.6 -1.6 -0.6 85 0.9 NW 6 17 3 9 - - 0.0
04/06:00pm 1.6 -1.6 -0.6 85 0.9 NW 6 15 3 8 - - 0.0
04/05:30pm 1.5 -1.0 -0.7 85 0.9 SSE 2 9 1 5 - - 0.0
04/05:00pm 2.2 -1.6 -0.5 82 1.1 W 9 17 5 9 - - 0.0
04/04:30pm 2.6 -0.8 -0.5 80 1.3 SSW 7 20 4 11 - - 0.0
04/04:00pm 3.4 0.5 -0.8 74 1.7 W 4 7 2 4 - - 0.0
04/03:30pm 4.3 -0.3 -0.9 69 2.2 W 13 28 7 15 - - 0.0
04/03:00pm 4.6 -0.3 -0.8 68 2.3 WNW 15 24 8 13 - - 0.0
04/02:30pm 4.7 0.5 -0.7 68 2.3 W 11 28 6 15 - - 0.0
04/02:00pm 4.6 0.1 -0.4 70 2.1 WNW 13 20 7 11 - - 0.0
04/01:30pm 3.6 -1.7 -0.6 74 1.7 WNW 17 26 9 14 - - 0.0
04/01:00pm 4.6 -1.0 0.0 72 2.0 WNW 19 30 10 16 - - 0.0
04/12:30pm 4.2 -0.9 0.5 77 1.6 WNW 17 28 9 15 - - 0.0
04/12:00pm 4.6 -1.0 0.2 73 1.9 W 19 30 10 16 - - 0.0
04/11:30am 4.5 -0.6 0.6 76 1.7 W 17 26 9 14 - - 0.0
04/11:00am 4.3 -1.3 -0.1 73 1.9 WNW 19 28 10 15 - - 0.0
04/10:30am 4.2 0.1 -0.4 72 1.9 WSW 11 22 6 12 - - 0.0
04/10:00am 4.5 1.3 -0.3 71 2.0 NW 6 15 3 8 - - 0.0
04/09:30am 2.8 -2.0 -0.1 81 1.2 WNW 15 28 8 15 - - 0.0
04/09:00am 2.8 -0.8 0.7 86 0.9 W 9 24 5 13 - - 17.0
04/08:30am 2.1 -4.5 -0.5 83 1.1 W 24 41 13 22 - - 17.0
04/08:00am 1.7 -5.7 -0.4 86 0.9 W 28 46 15 25 - - 17.0
04/07:56am 1.7 -5.6 -0.2 87 0.8 W 28 48 15 26 - - 17.0
04/07:30am 1.3 -5.3 -0.3 89 0.7 W 24 39 13 21 - - 17.0
04/07:00am 1.4 -3.1 -0.4 88 0.7 W 13 26 7 14 - - 17.0
04/06:30am 1.8 -1.8 0.5 91 0.5 WSW 9 24 5 13 - - 17.0
04/06:00am 1.7 -3.9 0.2 90 0.6 WNW 19 37 10 20 - - 17.0
04/05:30am 2.3 -7.0 0.7 89 0.7 WNW 39 67 21 36 - - 17.0
04/05:17am 3.0 -7.1 1.7 91 0.6 WNW 44 72 24 39 - - 17.0
04/05:05am 3.3 -3.7 2.1 92 0.5 WNW 28 54 15 29 - - 17.0
04/05:00am 3.3 -2.9 2.3 93 0.4 W 24 54 13 29 - - 17.0
04/04:30am 4.5 -0.5 3.5 93 0.5 W 19 41 10 22 - - 16.8
04/04:02am 4.7 -2.0 3.8 94 0.4 W 28 59 15 32 - - 15.8
04/04:00am 4.7 -1.2 4.0 95 0.3 W 24 59 13 32 - - 15.8
04/03:30am 5.3 -1.3 4.4 94 0.4 W 28 63 15 34 - - 15.4
04/03:00am 5.2 -2.7 4.6 96 0.3 WNW 35 76 19 41 - - 14.4
04/02:30am 5.2 -5.1 4.6 96 0.3 WNW 48 87 26 47 - - 14.2
04/02:00am 5.3 -3.3 4.9 97 0.2 WNW 39 78 21 42 - - 13.8
04/01:30am 5.2 -2.6 4.8 97 0.2 WNW 35 76 19 41 - - 13.0
04/01:00am 5.0 -3.3 4.4 96 0.3 WNW 37 82 20 44 - - 12.6
04/12:30am 5.4 -3.6 4.7 95 0.3 W 41 76 22 41 - - 11.4
04/12:00am 5.4 -4.0 4.4 93 0.5 WNW 43 74 23 40 - - 8.6
 
Date/Time
EST
Temp
°C
App
Temp
°C
Dew
Point
Rel
Hum
%
Delta-T
°C
Wind Press
QNH
hPa
Press
MSL
hPa
Rain
since 9 am
mm
Dir
 
Spd
km/h
Gust
km/h
Spd
kts
Gust
kts
03/11:30pm 4.6 -3.0 3.9 95 0.3 W 33 63 18 34 - - 5.8
03/11:00pm 4.2 -5.4 3.5 95 0.3 W 43 72 23 39 - - 3.8
03/10:30pm 4.1 -6.9 3.1 93 0.5 W 50 78 27 42 - - 2.4
03/10:00pm 4.5 -6.4 3.3 92 0.6 W 50 83 27 45 - - 0.6
03/09:45pm 4.6 -5.6 3.3 91 0.6 W 46 91 25 49 - - 0.0
03/09:30pm 4.6 -4.3 2.9 89 0.8 W 39 70 21 38 - - 0.0
03/09:00pm 4.9 -4.2 1.9 81 1.3 W 39 78 21 42 - - 0.0
03/08:30pm 4.8 -4.3 1.7 80 1.4 W 39 80 21 43 - - 0.0
03/08:00pm 5.0 -2.4 1.7 79 1.5 W 30 83 16 45 - - 0.0
03/07:30pm 4.9 -2.9 1.7 80 1.4 W 32 74 17 40 - - 0.0
03/07:01pm 5.0 -2.0 1.7 79 1.5 W 28 70 15 38 - - 0.0
03/07:00pm 5.0 -1.7 1.7 79 1.5 W 26 70 14 38 - - 0.0
03/06:40pm 4.9 -2.2 1.6 79 1.5 W 28 57 15 31 - - 0.0
03/06:30pm 5.0 -0.3 1.7 79 1.5 W 19 57 10 31 - - 0.0
03/06:00pm 4.9 -2.9 1.4 78 1.5 W 32 67 17 36 - - 0.0
03/05:31pm 5.0 -2.1 1.3 77 1.6 W 28 78 15 42 - - 0.0
03/05:30pm 4.9 -1.8 1.2 77 1.6 W 26 78 14 42 - - 0.0
03/05:00pm 5.0 -2.1 1.1 76 1.7 W 28 63 15 34 - - 0.0
03/04:39pm 5.1 -2.4 1.0 75 1.8 W 30 78 16 42 - - 0.0
03/04:30pm 5.1 -1.6 1.2 76 1.7 W 26 59 14 32 - - 0.0
03/04:01pm 5.2 -2.0 1.0 74 1.8 W 28 63 15 34 - - 0.0
03/04:00pm 5.2 -1.6 1.1 75 1.8 W 26 63 14 34 - - 0.0
03/03:30pm 5.1 -1.3 1.2 76 1.7 W 24 70 13 38 - - 0.0
03/03:00pm 5.0 -2.8 1.5 78 1.6 W 32 72 17 39 - - 0.0
03/02:49pm 4.9 -3.2 1.2 77 1.6 W 33 82 18 44 - - 0.0
03/02:32pm 5.0 -2.1 1.5 78 1.6 W 28 61 15 33 - - 0.0
03/02:30pm 4.8 -2.0 1.1 77 1.6 W 26 61 14 33 - - 0.0
03/02:17pm 4.7 -0.9 1.2 78 1.5 W 20 57 11 31 - - 0.0
03/02:00pm 4.7 -1.7 1.2 78 1.5 W 24 69 13 37 - - 0.0
03/01:30pm 4.3 -3.8 1.0 79 1.4 W 33 85 18 46 - - 0.0
03/01:00pm 3.9 -4.5 1.3 83 1.1 W 35 87 19 47 - - 0.0
03/12:30pm 3.9 -3.3 0.9 81 1.3 W 28 70 15 38 - - 0.0
03/12:24pm 3.7 -3.5 0.9 82 1.2 W 28 72 15 39 - - 0.0
03/12:20pm 3.8 -2.6 0.8 81 1.3 W 24 72 13 39 - - 0.0
03/12:00pm 3.8 -3.4 0.8 81 1.3 W 28 50 15 27 - - 0.0
03/11:30am 3.4 -4.7 0.8 83 1.1 W 33 76 18 41 - - 0.0
03/11:00am 3.4 -5.9 0.8 83 1.1 W 39 74 21 40 - - 0.0
03/10:30am 3.4 -4.8 0.6 82 1.2 W 33 69 18 37 - - 0.0
03/10:00am 3.1 -6.2 0.7 84 1.0 W 39 70 21 38 - - 0.0
03/09:30am 3.1 -7.0 0.5 83 1.1 W 43 72 23 39 - - 0.0
03/09:00am 2.6 -8.0 0.8 88 0.8 W 46 76 25 41 - - 0.0
03/08:30am 2.5 -6.4 0.7 88 0.8 W 37 69 20 37 - - 0.0
03/08:00am 2.3 -6.6 0.8 90 0.6 W 37 70 20 38 - - 0.0
03/07:30am 2.2 -5.0 0.6 89 0.7 W 28 56 15 30 - - 0.0
03/07:03am 2.2 -5.0 0.7 90 0.6 W 28 59 15 32 - - 0.0
03/07:00am 2.2 -4.6 0.9 91 0.6 WNW 26 59 14 32 - - 0.0
03/06:30am 2.2 -5.0 0.7 90 0.6 W 28 50 15 27 - - 0.0
03/06:00am 2.1 -6.1 0.6 90 0.6 W 33 56 18 30 - - 0.0
03/05:37am 2.2 -5.0 0.6 89 0.7 WNW 28 52 15 28 - - 0.0
03/05:30am 2.1 -4.0 0.5 89 0.7 W 22 46 12 25 - - 0.0
03/05:00am 2.1 -5.6 0.0 86 0.9 WNW 30 63 16 34 - - 0.0
03/04:52am 2.2 -5.1 -0.2 84 1.0 W 28 59 15 32 - - 0.0
03/04:30am 2.0 -3.6 0.1 87 0.8 W 19 41 10 22 - - 0.0
03/04:00am 2.0 -4.9 0.1 87 0.8 W 26 44 14 24 - - 0.0
03/03:30am 2.1 -6.9 -0.2 85 1.0 W 37 70 20 38 - - 0.0
03/03:00am 1.9 -7.6 -0.8 82 1.1 W 39 65 21 35 - - 0.0
03/02:30am 1.7 -10.7 -1.2 81 1.2 W 54 80 29 43 - - 0.0
03/02:00am 1.7 -8.8 -1.2 81 1.2 WNW 44 72 24 39 - - 0.0
03/01:39am 1.6 -5.9 -1.5 80 1.2 W 28 54 15 29 - - 0.0
03/01:30am 1.4 -5.7 -1.3 82 1.1 W 26 50 14 27 - - 0.0
03/01:00am 1.7 -6.7 -1.2 81 1.2 W 33 57 18 31 - - 0.0
03/12:30am 1.4 -7.4 -1.5 81 1.2 W 35 61 19 33 - - 0.0
03/12:00am 1.3 -7.0 -1.8 80 1.2 W 32 67 17 36 - - 0.0
 
Date/Time
EST
Temp
°C
App
Temp
°C
Dew
Point
Rel
Hum
%
Delta-T
°C
Wind Press
QNH
hPa
Press
MSL
hPa
Rain
since 9 am
mm
Dir
 
Spd
km/h
Gust
km/h
Spd
kts
Gust
kts
02/11:34pm 1.0 -6.6 -1.9 81 1.2 W 28 52 15 28 - - 0.0
02/11:30pm 1.0 -6.6 -1.9 81 1.2 W 28 44 15 24 - - 0.0
02/11:00pm 1.0 -6.5 -1.7 82 1.1 WSW 28 48 15 26 - - 0.0
02/10:57pm 1.0 -6.6 -1.9 81 1.2 W 28 48 15 26 - - 0.0
02/10:30pm 0.9 -5.9 -1.7 83 1.1 W 24 50 13 27 - - 0.0
02/10:00pm 0.9 -6.6 -1.7 83 1.1 WSW 28 52 15 28 - - 0.0
02/09:53pm 0.7 -6.9 -1.8 83 1.0 WSW 28 48 15 26 - - 0.0
02/09:30pm 0.7 -6.5 -1.8 83 1.0 W 26 44 14 24 - - 0.0
02/09:00pm 0.6 -5.8 -1.8 84 1.0 W 22 39 12 21 - - 0.0
02/08:30pm 0.6 -7.3 -1.9 83 1.0 WNW 30 50 16 27 - - 0.0
02/08:00pm 0.7 -7.7 -2.2 81 1.2 W 32 54 17 29 - - 0.0
02/07:30pm 0.7 -7.3 -2.5 79 1.3 W 30 56 16 30 - - 0.0
02/07:00pm 0.5 -7.5 -2.7 79 1.3 W 30 50 16 27 - - 0.0
02/06:30pm 0.4 -7.3 -2.6 80 1.2 W 28 50 15 27 - - 0.0
02/06:00pm 0.4 -8.0 -2.5 81 1.1 WNW 32 50 17 27 - - 0.0
02/05:30pm 0.1 -8.4 -2.0 86 0.8 W 33 61 18 33 - - 0.0
02/05:00pm 0.2 -8.3 -2.0 85 0.9 WNW 33 59 18 32 - - 0.0
02/04:30pm 0.5 -8.0 -1.6 86 0.9 WNW 33 63 18 34 - - 0.0
02/04:00pm 0.7 -7.6 -1.4 86 0.9 W 32 57 17 31 - - 0.0
02/03:30pm 0.7 -7.5 -1.2 87 0.8 WNW 32 54 17 29 - - 0.0
02/03:15pm 0.8 -6.7 -1.4 85 0.9 WNW 28 46 15 25 - - 0.0
02/03:00pm 0.7 -6.4 -1.2 87 0.8 W 26 50 14 27 - - 0.0
02/02:45pm 0.8 -6.7 -1.3 86 0.9 W 28 54 15 29 - - 0.0
02/02:30pm 1.1 -4.9 -1.5 83 1.0 W 20 48 11 26 - - 0.0
02/02:00pm 1.6 -3.8 -1.5 80 1.2 W 17 43 9 23 - - 0.0
02/01:30pm 0.9 -6.3 -1.8 82 1.1 W 26 52 14 28 - - 0.0
02/01:00pm 0.8 -6.9 -2.6 78 1.3 W 28 52 15 28 - - 0.0
02/12:57pm 1.1 -6.5 -2.0 80 1.3 W 28 52 15 28 - - 0.0
02/12:30pm 1.2 -4.3 -1.9 80 1.3 W 17 37 9 20 - - 0.0
02/12:00pm 1.9 -1.6 -1.7 77 1.4 NW 7 20 4 11 - - 0.0
02/11:30am 1.1 -2.6 -2.5 77 1.5 WSW 7 28 4 15 - - 0.0
02/11:00am 1.7 -1.9 -2.2 75 1.5 WSW 7 15 4 8 - - 0.0
02/10:30am 2.7 -1.0 -3.2 65 2.3 W 7 19 4 10 - - 0.0
02/10:00am 2.2 -1.9 -3.1 68 2.0 WNW 9 19 5 10 - - 0.0
02/09:30am 1.6 -2.5 -2.7 73 1.7 WNW 9 20 5 11 - - 0.0
02/09:00am 0.8 -4.8 -3.3 74 1.6 WNW 17 28 9 15 - - 7.8
02/08:30am 0.7 -3.9 -4.3 69 1.9 WNW 11 19 6 10 - - 7.8
02/08:00am 0.8 -4.1 -7.2 55 2.8 W 11 20 6 11 - - 7.8
02/07:30am -0.8 -6.1 -4.0 79 1.1 W 15 24 8 13 - - 7.8

Other Formats:

Comma delimited format used in spreadsheet applications
http://www.bom.gov.au/fwo/IDN60801/IDN60801.94915.axf

JavaScript Object Notation format (JSON) in row-major order
http://www.bom.gov.au/fwo/IDN60801/IDN60801.94915.json